aviador You're here:

KUGN Decoded Metar

CHICAGO in IL, USA
Report Time2018-01-18 10:55:00
UTC Time2018-01-18 11:47:34
Flight Rules vfr VFR
Wind240° at 06 kt
W.Decomp.*RWY 23: 5.8 kt HW 1.3 kt RCW
RWY 32: 1.3 kt HW 5.8 kt LCW
W.Rank240° ranks 16
Current wind is below 240° avg. (6.0)
Visibility9999 m
Phenomena:N/A
Clouds:N/A
Expected CloudBase > 2,000 ft AGL from Temp-Dew spread
CeilingNone
Temp-8°C (ISA -22)
Dew Point-13°C (68% RH)
AAT-13.4°C
QNH1019 hPa
Density Alt-2,123 ft
Elevation728 ft
Report Wrong Elevation
Raw Report
METAR KUGN 181055Z AUTO 24006KT 8SM CLR M08/M13 A3009 RMK AO2 SLP211
T10781128=

Extra information for KUGN:More info

Metar Taf Metar & Taf Last 4 Metars F.Rules Stats Wind Profile Meteogram Temp Stats Airport Information Weather charts Add Link Nearby VenuesMetar ALERT Operation Metar Decoded Social comments

AIRNAV info for KUGN